sensor_id;sensor_type;location;lat;lon;timestamp;pressure;altitude;pressure_sealevel;temperature
63588;BMP280;49966;46.896;18.004;2023-09-19T00:00:38;99927.00;;;21.51
63588;BMP280;49966;46.896;18.004;2023-09-19T00:03:09;99932.72;;;21.53
63588;BMP280;49966;46.896;18.004;2023-09-19T00:05:39;99947.69;;;21.54
63588;BMP280;49966;46.896;18.004;2023-09-19T00:08:12;99935.09;;;21.51
63588;BMP280;49966;46.896;18.004;2023-09-19T00:10:43;99932.38;;;21.51
63588;BMP280;49966;46.896;18.004;2023-09-19T00:13:11;99932.78;;;21.49
63588;BMP280;49966;46.896;18.004;2023-09-19T00:15:44;99941.66;;;21.50
63588;BMP280;49966;46.896;18.004;2023-09-19T00:18:16;99935.50;;;21.49
63588;BMP280;49966;46.896;18.004;2023-09-19T00:20:46;99932.06;;;21.49
63588;BMP280;49966;46.896;18.004;2023-09-19T00:23:17;99925.91;;;21.48
63588;BMP280;49966;46.896;18.004;2023-09-19T00:25:48;99923.22;;;21.48
63588;BMP280;49966;46.896;18.004;2023-09-19T00:28:17;99926.66;;;21.49
63588;BMP280;49966;46.896;18.004;2023-09-19T00:30:47;99921.59;;;21.51
63588;BMP280;49966;46.896;18.004;2023-09-19T00:33:18;99914.47;;;21.57
63588;BMP280;49966;46.896;18.004;2023-09-19T00:35:47;99902.84;;;21.60
63588;BMP280;49966;46.896;18.004;2023-09-19T00:38:16;99910.81;;;21.64
63588;BMP280;49966;46.896;18.004;2023-09-19T00:40:52;99916.88;;;21.68
63588;BMP280;49966;46.896;18.004;2023-09-19T00:43:22;99916.44;;;21.69
63588;BMP280;49966;46.896;18.004;2023-09-19T00:45:52;99910.59;;;21.71
63588;BMP280;49966;46.896;18.004;2023-09-19T00:48:22;99904.75;;;21.72
63588;BMP280;49966;46.896;18.004;2023-09-19T00:50:53;99923.66;;;21.72
63588;BMP280;49966;46.896;18.004;2023-09-19T00:53:23;99915.56;;;21.72
63588;BMP280;49966;46.896;18.004;2023-09-19T00:55:54;99911.75;;;21.70
63588;BMP280;49966;46.896;18.004;2023-09-19T00:58:23;99916.09;;;21.67
63588;BMP280;49966;46.896;18.004;2023-09-19T01:00:52;99912.31;;;21.65
63588;BMP280;49966;46.896;18.004;2023-09-19T01:03:22;99899.34;;;21.59
63588;BMP280;49966;46.896;18.004;2023-09-19T01:05:51;99895.28;;;21.55
63588;BMP280;49966;46.896;18.004;2023-09-19T01:08:20;99903.91;;;21.50
63588;BMP280;49966;46.896;18.004;2023-09-19T01:10:55;99899.06;;;21.45
63588;BMP280;49966;46.896;18.004;2023-09-19T01:13:30;99896.91;;;21.40
63588;BMP280;49966;46.896;18.004;2023-09-19T01:16:06;99890.84;;;21.36
63588;BMP280;49966;46.896;18.004;2023-09-19T01:18:51;99880.56;;;21.30
63588;BMP280;49966;46.896;18.004;2023-09-19T01:21:26;99889.06;;;21.29
63588;BMP280;49966;46.896;18.004;2023-09-19T01:24:15;99901.19;;;21.24
63588;BMP280;49966;46.896;18.004;2023-09-19T01:27:01;99893.09;;;21.24
63588;BMP280;49966;46.896;18.004;2023-09-19T01:29:38;99873.00;;;21.25
63588;BMP280;49966;46.896;18.004;2023-09-19T01:32:09;99887.72;;;21.24
63588;BMP280;49966;46.896;18.004;2023-09-19T01:34:44;99894.59;;;21.25
63588;BMP280;49966;46.896;18.004;2023-09-19T01:37:16;99893.75;;;21.28
63588;BMP280;49966;46.896;18.004;2023-09-19T01:39:49;99893.31;;;21.30
63588;BMP280;49966;46.896;18.004;2023-09-19T01:42:29;99896.34;;;21.32
63588;BMP280;49966;46.896;18.004;2023-09-19T01:45:03;99890.50;;;21.33
63588;BMP280;49966;46.896;18.004;2023-09-19T01:47:41;99902.50;;;21.32
63588;BMP280;49966;46.896;18.004;2023-09-19T01:50:17;99888.53;;;21.34
63588;BMP280;49966;46.896;18.004;2023-09-19T01:52:56;99880.16;;;21.32
63588;BMP280;49966;46.896;18.004;2023-09-19T01:55:29;99895.56;;;21.31
63588;BMP280;49966;46.896;18.004;2023-09-19T01:58:04;99882.09;;;21.31
63588;BMP280;49966;46.896;18.004;2023-09-19T02:03:33;99873.44;;;21.24
63588;BMP280;49966;46.896;18.004;2023-09-19T02:06:04;99876.47;;;21.26
63588;BMP280;49966;46.896;18.004;2023-09-19T02:08:39;99876.66;;;21.19
63588;BMP280;49966;46.896;18.004;2023-09-19T02:11:08;99876.97;;;21.21
63588;BMP280;49966;46.896;18.004;2023-09-19T02:13:38;99879.59;;;21.12
63588;BMP280;49966;46.896;18.004;2023-09-19T02:16:09;99880.13;;;21.06
63588;BMP280;49966;46.896;18.004;2023-09-19T02:18:42;99878.34;;;21.00
63588;BMP280;49966;46.896;18.004;2023-09-19T02:21:11;99883.75;;;21.00
63588;BMP280;49966;46.896;18.004;2023-09-19T02:23:39;99868.28;;;20.88
63588;BMP280;49966;46.896;18.004;2023-09-19T02:26:09;99875.06;;;20.79
63588;BMP280;49966;46.896;18.004;2023-09-19T02:28:39;99885.16;;;20.75
63588;BMP280;49966;46.896;18.004;2023-09-19T02:31:09;99887.28;;;20.68
63588;BMP280;49966;46.896;18.004;2023-09-19T02:33:38;99877.16;;;20.59
63588;BMP280;49966;46.896;18.004;2023-09-19T02:36:10;99893.38;;;20.56
63588;BMP280;49966;46.896;18.004;2023-09-19T02:38:39;99876.56;;;20.51
63588;BMP280;49966;46.896;18.004;2023-09-19T02:41:09;99900.31;;;20.57
63588;BMP280;49966;46.896;18.004;2023-09-19T02:43:37;99887.88;;;20.46
63588;BMP280;49966;46.896;18.004;2023-09-19T02:46:07;99895.00;;;20.53
63588;BMP280;49966;46.896;18.004;2023-09-19T02:48:36;99896.59;;;20.50
63588;BMP280;49966;46.896;18.004;2023-09-19T02:51:06;99909.47;;;20.59
63588;BMP280;49966;46.896;18.004;2023-09-19T02:53:37;99905.25;;;20.58
63588;BMP280;49966;46.896;18.004;2023-09-19T02:56:06;99895.06;;;20.49
63588;BMP280;49966;46.896;18.004;2023-09-19T02:58:35;99899.56;;;20.56
63588;BMP280;49966;46.896;18.004;2023-09-19T03:01:08;99878.41;;;20.55
63588;BMP280;49966;46.896;18.004;2023-09-19T03:03:39;99888.66;;;20.60
63588;BMP280;49966;46.896;18.004;2023-09-19T03:06:10;99887.41;;;20.64
63588;BMP280;49966;46.896;18.004;2023-09-19T03:08:42;99901.75;;;20.61
63588;BMP280;49966;46.896;18.004;2023-09-19T03:11:11;99907.69;;;20.69
63588;BMP280;49966;46.896;18.004;2023-09-19T03:13:42;99900.22;;;20.60
63588;BMP280;49966;46.896;18.004;2023-09-19T03:16:13;99903.66;;;20.61
63588;BMP280;49966;46.896;18.004;2023-09-19T03:18:42;99908.22;;;20.64
63588;BMP280;49966;46.896;18.004;2023-09-19T03:21:12;99908.72;;;20.59
63588;BMP280;49966;46.896;18.004;2023-09-19T03:23:44;99923.94;;;20.65
63588;BMP280;49966;46.896;18.004;2023-09-19T03:26:13;99921.91;;;20.69
63588;BMP280;49966;46.896;18.004;2023-09-19T03:28:43;99926.91;;;20.84
63588;BMP280;49966;46.896;18.004;2023-09-19T03:31:14;99913.28;;;20.91
63588;BMP280;49966;46.896;18.004;2023-09-19T03:33:43;99911.91;;;20.99
63588;BMP280;49966;46.896;18.004;2023-09-19T03:36:12;99913.97;;;21.08
63588;BMP280;49966;46.896;18.004;2023-09-19T03:38:45;99927.19;;;21.31
63588;BMP280;49966;46.896;18.004;2023-09-19T03:41:13;99934.84;;;21.32
63588;BMP280;49966;46.896;18.004;2023-09-19T03:43:44;99929.25;;;21.27
63588;BMP280;49966;46.896;18.004;2023-09-19T03:46:12;99928.44;;;21.26
63588;BMP280;49966;46.896;18.004;2023-09-19T03:48:42;99934.72;;;21.23
63588;BMP280;49966;46.896;18.004;2023-09-19T03:51:11;99931.94;;;21.27
63588;BMP280;49966;46.896;18.004;2023-09-19T03:53:39;99956.75;;;21.34
63588;BMP280;49966;46.896;18.004;2023-09-19T03:56:09;99959.75;;;21.24
63588;BMP280;49966;46.896;18.004;2023-09-19T03:58:38;99965.72;;;21.02
63588;BMP280;49966;46.896;18.004;2023-09-19T04:01:07;99964.34;;;20.82
63588;BMP280;49966;46.896;18.004;2023-09-19T04:03:36;99973.69;;;20.61
63588;BMP280;49966;46.896;18.004;2023-09-19T04:06:13;99977.22;;;20.58
63588;BMP280;49966;46.896;18.004;2023-09-19T04:08:43;99964.44;;;20.45
63588;BMP280;49966;46.896;18.004;2023-09-19T04:11:14;99975.72;;;20.40
63588;BMP280;49966;46.896;18.004;2023-09-19T04:13:43;99967.91;;;20.30
63588;BMP280;49966;46.896;18.004;2023-09-19T04:16:11;99967.25;;;20.25
63588;BMP280;49966;46.896;18.004;2023-09-19T04:18:40;99968.66;;;20.14
63588;BMP280;49966;46.896;18.004;2023-09-19T04:21:09;99973.34;;;20.10
63588;BMP280;49966;46.896;18.004;2023-09-19T04:23:38;99974.63;;;20.05
63588;BMP280;49966;46.896;18.004;2023-09-19T04:26:07;99985.03;;;20.03
63588;BMP280;49966;46.896;18.004;2023-09-19T04:28:37;99982.06;;;19.97
63588;BMP280;49966;46.896;18.004;2023-09-19T04:31:06;100011.25;;;19.99
63588;BMP280;49966;46.896;18.004;2023-09-19T04:33:37;100004.78;;;19.96
63588;BMP280;49966;46.896;18.004;2023-09-19T04:36:06;99993.59;;;19.98
63588;BMP280;49966;46.896;18.004;2023-09-19T04:38:55;100006.78;;;19.92
63588;BMP280;49966;46.896;18.004;2023-09-19T04:41:25;100015.34;;;19.87
63588;BMP280;49966;46.896;18.004;2023-09-19T04:43:57;100022.59;;;19.90
63588;BMP280;49966;46.896;18.004;2023-09-19T04:46:26;100028.13;;;19.83
63588;BMP280;49966;46.896;18.004;2023-09-19T04:48:55;100034.13;;;19.91
63588;BMP280;49966;46.896;18.004;2023-09-19T04:51:24;100030.88;;;19.80
63588;BMP280;49966;46.896;18.004;2023-09-19T04:53:54;100030.84;;;19.83
63588;BMP280;49966;46.896;18.004;2023-09-19T04:56:23;100034.47;;;19.73
63588;BMP280;49966;46.896;18.004;2023-09-19T04:58:51;100043.88;;;19.65
63588;BMP280;49966;46.896;18.004;2023-09-19T05:01:22;100062.84;;;19.58
63588;BMP280;49966;46.896;18.004;2023-09-19T05:03:49;100041.81;;;19.53
63588;BMP280;49966;46.896;18.004;2023-09-19T05:06:20;100045.34;;;19.46
63588;BMP280;49966;46.896;18.004;2023-09-19T05:08:49;100066.41;;;19.51
63588;BMP280;49966;46.896;18.004;2023-09-19T05:11:20;100067.41;;;19.37
63588;BMP280;49966;46.896;18.004;2023-09-19T05:13:50;100055.78;;;19.44
63588;BMP280;49966;46.896;18.004;2023-09-19T05:16:21;100082.63;;;19.48
63588;BMP280;49966;46.896;18.004;2023-09-19T05:18:50;100063.84;;;19.44
63588;BMP280;49966;46.896;18.004;2023-09-19T05:21:19;100069.38;;;19.57
63588;BMP280;49966;46.896;18.004;2023-09-19T05:23:47;100063.31;;;19.53
63588;BMP280;49966;46.896;18.004;2023-09-19T05:26:16;100072.06;;;19.57
63588;BMP280;49966;46.896;18.004;2023-09-19T05:28:45;100075.53;;;19.57
63588;BMP280;49966;46.896;18.004;2023-09-19T05:31:15;100082.41;;;19.58
63588;BMP280;49966;46.896;18.004;2023-09-19T05:33:45;100091.50;;;19.44
63588;BMP280;49966;46.896;18.004;2023-09-19T05:36:13;100102.28;;;19.41
63588;BMP280;49966;46.896;18.004;2023-09-19T05:38:43;100107.00;;;19.37
63588;BMP280;49966;46.896;18.004;2023-09-19T05:41:12;100127.41;;;19.34
63588;BMP280;49966;46.896;18.004;2023-09-19T05:43:41;100121.41;;;19.23
63588;BMP280;49966;46.896;18.004;2023-09-19T05:46:11;100131.41;;;19.23
63588;BMP280;49966;46.896;18.004;2023-09-19T05:48:39;100133.16;;;19.09
63588;BMP280;49966;46.896;18.004;2023-09-19T05:51:10;100137.81;;;19.05
63588;BMP280;49966;46.896;18.004;2023-09-19T05:53:38;100151.00;;;18.96
63588;BMP280;49966;46.896;18.004;2023-09-19T05:56:09;100133.88;;;18.86
63588;BMP280;49966;46.896;18.004;2023-09-19T05:58:38;100118.31;;;18.74
63588;BMP280;49966;46.896;18.004;2023-09-19T06:01:07;100114.50;;;18.72
63588;BMP280;49966;46.896;18.004;2023-09-19T06:03:36;100107.91;;;18.76
63588;BMP280;49966;46.896;18.004;2023-09-19T06:06:06;100101.44;;;18.74
63588;BMP280;49966;46.896;18.004;2023-09-19T06:08:36;100110.34;;;18.67
63588;BMP280;49966;46.896;18.004;2023-09-19T06:11:05;100103.88;;;18.64
63588;BMP280;49966;46.896;18.004;2023-09-19T06:13:36;100097.47;;;18.55
63588;BMP280;49966;46.896;18.004;2023-09-19T06:16:06;100097.78;;;18.60
63588;BMP280;49966;46.896;18.004;2023-09-19T06:18:36;100093.44;;;18.70
63588;BMP280;49966;46.896;18.004;2023-09-19T06:21:06;100088.56;;;18.61
63588;BMP280;49966;46.896;18.004;2023-09-19T06:23:36;100096.38;;;18.52
63588;BMP280;49966;46.896;18.004;2023-09-19T06:26:05;100097.97;;;18.46
63588;BMP280;49966;46.896;18.004;2023-09-19T06:28:35;100095.19;;;18.53
63588;BMP280;49966;46.896;18.004;2023-09-19T06:31:04;100091.25;;;18.61
63588;BMP280;49966;46.896;18.004;2023-09-19T06:33:37;100075.09;;;18.65
63588;BMP280;49966;46.896;18.004;2023-09-19T06:36:07;100086.84;;;18.75
63588;BMP280;49966;46.896;18.004;2023-09-19T06:38:37;100105.56;;;18.78
63588;BMP280;49966;46.896;18.004;2023-09-19T06:41:06;100109.81;;;18.79
63588;BMP280;49966;46.896;18.004;2023-09-19T06:43:35;100117.50;;;18.77
63588;BMP280;49966;46.896;18.004;2023-09-19T06:46:04;100125.22;;;18.75
63588;BMP280;49966;46.896;18.004;2023-09-19T06:48:34;100124.34;;;18.82
63588;BMP280;49966;46.896;18.004;2023-09-19T06:51:03;100126.69;;;18.80
63588;BMP280;49966;46.896;18.004;2023-09-19T06:53:32;100138.84;;;18.88
63588;BMP280;49966;46.896;18.004;2023-09-19T06:56:03;100133.44;;;18.91
63588;BMP280;49966;46.896;18.004;2023-09-19T06:58:33;100136.81;;;18.96
63588;BMP280;49966;46.896;18.004;2023-09-19T07:01:03;100130.78;;;18.88
63588;BMP280;49966;46.896;18.004;2023-09-19T07:03:32;100143.00;;;18.92
63588;BMP280;49966;46.896;18.004;2023-09-19T07:06:01;100134.06;;;18.99
63588;BMP280;49966;46.896;18.004;2023-09-19T07:08:31;100156.00;;;18.98
63588;BMP280;49966;46.896;18.004;2023-09-19T07:11:00;100134.13;;;18.96
63588;BMP280;49966;46.896;18.004;2023-09-19T07:13:30;100149.03;;;19.00
63588;BMP280;49966;46.896;18.004;2023-09-19T07:15:58;100149.44;;;18.99
63588;BMP280;49966;46.896;18.004;2023-09-19T07:18:27;100156.69;;;19.02
63588;BMP280;49966;46.896;18.004;2023-09-19T07:20:57;100139.94;;;18.90
63588;BMP280;49966;46.896;18.004;2023-09-19T07:23:28;100163.19;;;19.04
63588;BMP280;49966;46.896;18.004;2023-09-19T07:25:57;100163.22;;;19.01
63588;BMP280;49966;46.896;18.004;2023-09-19T07:28:26;100164.19;;;18.87
63588;BMP280;49966;46.896;18.004;2023-09-19T07:30:56;100172.19;;;18.94
63588;BMP280;49966;46.896;18.004;2023-09-19T07:33:25;100176.41;;;18.91
63588;BMP280;49966;46.896;18.004;2023-09-19T07:35:55;100179.03;;;18.95
63588;BMP280;49966;46.896;18.004;2023-09-19T07:38:26;100174.97;;;18.83
63588;BMP280;49966;46.896;18.004;2023-09-19T07:41:00;100175.16;;;19.00
63588;BMP280;49966;46.896;18.004;2023-09-19T07:43:29;100176.97;;;19.06
63588;BMP280;49966;46.896;18.004;2023-09-19T07:46:04;100188.28;;;19.21
63588;BMP280;49966;46.896;18.004;2023-09-19T07:48:34;100182.91;;;19.21
63588;BMP280;49966;46.896;18.004;2023-09-19T07:51:03;100208.97;;;18.97
63588;BMP280;49966;46.896;18.004;2023-09-19T07:53:33;100230.69;;;19.10
63588;BMP280;49966;46.896;18.004;2023-09-19T07:56:04;100232.34;;;19.00
63588;BMP280;49966;46.896;18.004;2023-09-19T07:58:33;100225.41;;;19.03
63588;BMP280;49966;46.896;18.004;2023-09-19T08:01:04;100222.03;;;18.95
63588;BMP280;49966;46.896;18.004;2023-09-19T08:03:33;100210.06;;;19.00
63588;BMP280;49966;46.896;18.004;2023-09-19T08:06:06;100205.13;;;18.98
63588;BMP280;49966;46.896;18.004;2023-09-19T08:08:34;100208.66;;;18.91
63588;BMP280;49966;46.896;18.004;2023-09-19T08:11:04;100188.31;;;18.90
63588;BMP280;49966;46.896;18.004;2023-09-19T08:13:39;100178.59;;;19.00
63588;BMP280;49966;46.896;18.004;2023-09-19T08:16:11;100174.50;;;19.19
63588;BMP280;49966;46.896;18.004;2023-09-19T08:18:42;100189.09;;;19.18
63588;BMP280;49966;46.896;18.004;2023-09-19T08:21:11;100183.88;;;19.31
63588;BMP280;49966;46.896;18.004;2023-09-19T08:23:45;100206.91;;;19.35
63588;BMP280;49966;46.896;18.004;2023-09-19T08:26:13;100189.19;;;19.38
63588;BMP280;49966;46.896;18.004;2023-09-19T08:28:41;100206.72;;;19.46
63588;BMP280;49966;46.896;18.004;2023-09-19T08:31:11;100199.19;;;19.61
63588;BMP280;49966;46.896;18.004;2023-09-19T08:33:40;100204.03;;;19.69
63588;BMP280;49966;46.896;18.004;2023-09-19T08:36:10;100210.88;;;19.74
63588;BMP280;49966;46.896;18.004;2023-09-19T08:38:38;100204.16;;;19.86
63588;BMP280;49966;46.896;18.004;2023-09-19T08:41:07;100202.09;;;19.93
63588;BMP280;49966;46.896;18.004;2023-09-19T08:43:36;100204.97;;;20.03
63588;BMP280;49966;46.896;18.004;2023-09-19T08:46:11;100207.34;;;20.01
63588;BMP280;49966;46.896;18.004;2023-09-19T08:48:45;100217.41;;;19.96
63588;BMP280;49966;46.896;18.004;2023-09-19T08:51:22;100219.28;;;20.19
63588;BMP280;49966;46.896;18.004;2023-09-19T08:54:00;100211.63;;;20.38
63588;BMP280;49966;46.896;18.004;2023-09-19T08:56:32;100227.53;;;20.52
63588;BMP280;49966;46.896;18.004;2023-09-19T08:59:03;100206.25;;;20.38
63588;BMP280;49966;46.896;18.004;2023-09-19T09:01:36;100221.00;;;20.49
63588;BMP280;49966;46.896;18.004;2023-09-19T09:04:09;100230.56;;;20.74
63588;BMP280;49966;46.896;18.004;2023-09-19T09:06:41;100227.34;;;20.79
63588;BMP280;49966;46.896;18.004;2023-09-19T09:09:10;100254.19;;;20.66
63588;BMP280;49966;46.896;18.004;2023-09-19T09:11:39;100263.06;;;20.83
63588;BMP280;49966;46.896;18.004;2023-09-19T09:14:08;100266.44;;;20.87
63588;BMP280;49966;46.896;18.004;2023-09-19T09:16:38;100263.50;;;20.82
63588;BMP280;49966;46.896;18.004;2023-09-19T09:19:06;100266.66;;;20.96
63588;BMP280;49966;46.896;18.004;2023-09-19T09:21:35;100283.94;;;20.99
63588;BMP280;49966;46.896;18.004;2023-09-19T09:24:28;100270.72;;;21.21
63588;BMP280;49966;46.896;18.004;2023-09-19T09:26:57;100270.06;;;21.17
63588;BMP280;49966;46.896;18.004;2023-09-19T09:29:42;100286.00;;;21.27
63588;BMP280;49966;46.896;18.004;2023-09-19T09:32:21;100287.56;;;21.45
63588;BMP280;49966;46.896;18.004;2023-09-19T09:34:51;100286.25;;;21.66
63588;BMP280;49966;46.896;18.004;2023-09-19T09:37:21;100290.22;;;21.77
63588;BMP280;49966;46.896;18.004;2023-09-19T09:39:50;100286.75;;;21.93
63588;BMP280;49966;46.896;18.004;2023-09-19T09:42:30;100300.03;;;22.16
63588;BMP280;49966;46.896;18.004;2023-09-19T09:45:14;100299.34;;;22.12
63588;BMP280;49966;46.896;18.004;2023-09-19T09:47:45;100307.75;;;21.85
63588;BMP280;49966;46.896;18.004;2023-09-19T09:50:26;100313.88;;;22.02
63588;BMP280;49966;46.896;18.004;2023-09-19T09:52:56;100314.47;;;22.39
63588;BMP280;49966;46.896;18.004;2023-09-19T09:56:01;100322.09;;;22.57
63588;BMP280;49966;46.896;18.004;2023-09-19T09:58:33;100331.38;;;22.56
63588;BMP280;49966;46.896;18.004;2023-09-19T10:01:03;100342.50;;;21.83
63588;BMP280;49966;46.896;18.004;2023-09-19T10:03:38;100335.41;;;21.89
63588;BMP280;49966;46.896;18.004;2023-09-19T10:06:13;100339.91;;;21.80
63588;BMP280;49966;46.896;18.004;2023-09-19T10:08:58;100342.44;;;21.71
63588;BMP280;49966;46.896;18.004;2023-09-19T10:11:34;100339.41;;;21.85
63588;BMP280;49966;46.896;18.004;2023-09-19T10:14:04;100345.81;;;21.91
63588;BMP280;49966;46.896;18.004;2023-09-19T10:16:40;100333.81;;;21.92
63588;BMP280;49966;46.896;18.004;2023-09-19T10:19:14;100333.75;;;21.96
63588;BMP280;49966;46.896;18.004;2023-09-19T10:21:43;100320.63;;;21.94
63588;BMP280;49966;46.896;18.004;2023-09-19T10:24:13;100330.94;;;21.99
63588;BMP280;49966;46.896;18.004;2023-09-19T10:26:43;100347.47;;;22.01
63588;BMP280;49966;46.896;18.004;2023-09-19T10:29:13;100348.84;;;21.93
63588;BMP280;49966;46.896;18.004;2023-09-19T10:31:44;100343.00;;;21.95
63588;BMP280;49966;46.896;18.004;2023-09-19T10:34:17;100353.50;;;21.93
63588;BMP280;49966;46.896;18.004;2023-09-19T10:36:46;100349.47;;;21.97
63588;BMP280;49966;46.896;18.004;2023-09-19T10:39:15;100352.72;;;22.08
63588;BMP280;49966;46.896;18.004;2023-09-19T10:41:51;100328.88;;;22.20
63588;BMP280;49966;46.896;18.004;2023-09-19T10:44:23;100353.75;;;22.27
63588;BMP280;49966;46.896;18.004;2023-09-19T10:46:53;100342.13;;;22.14
63588;BMP280;49966;46.896;18.004;2023-09-19T10:49:23;100330.81;;;22.19
63588;BMP280;49966;46.896;18.004;2023-09-19T10:51:54;100336.78;;;21.98
63588;BMP280;49966;46.896;18.004;2023-09-19T10:54:28;100318.69;;;22.11
63588;BMP280;49966;46.896;18.004;2023-09-19T10:56:59;100326.03;;;22.10
63588;BMP280;49966;46.896;18.004;2023-09-19T10:59:28;100327.88;;;22.13
63588;BMP280;49966;46.896;18.004;2023-09-19T11:02:16;100329.63;;;22.20
63588;BMP280;49966;46.896;18.004;2023-09-19T11:04:47;100337.31;;;22.22
63588;BMP280;49966;46.896;18.004;2023-09-19T11:07:17;100323.13;;;22.17
63588;BMP280;49966;46.896;18.004;2023-09-19T11:09:47;100321.97;;;22.19
63588;BMP280;49966;46.896;18.004;2023-09-19T11:12:49;100337.56;;;22.27
63588;BMP280;49966;46.896;18.004;2023-09-19T11:21:52;100344.91;;;22.27
63588;BMP280;49966;46.896;18.004;2023-09-19T11:24:29;100343.13;;;22.36
63588;BMP280;49966;46.896;18.004;2023-09-19T11:27:16;100344.00;;;22.46
63588;BMP280;49966;46.896;18.004;2023-09-19T11:29:45;100340.25;;;22.56
63588;BMP280;49966;46.896;18.004;2023-09-19T11:32:14;100332.47;;;22.58
63588;BMP280;49966;46.896;18.004;2023-09-19T11:34:45;100342.75;;;22.63
63588;BMP280;49966;46.896;18.004;2023-09-19T11:40:31;100342.94;;;22.56
63588;BMP280;49966;46.896;18.004;2023-09-19T11:43:29;100347.31;;;22.66
63588;BMP280;49966;46.896;18.004;2023-09-19T11:46:08;100324.94;;;22.66
63588;BMP280;49966;46.896;18.004;2023-09-19T11:48:38;100321.13;;;22.63
63588;BMP280;49966;46.896;18.004;2023-09-19T11:51:17;100326.81;;;22.82
63588;BMP280;49966;46.896;18.004;2023-09-19T11:53:51;100322.81;;;22.86
63588;BMP280;49966;46.896;18.004;2023-09-19T11:56:22;100320.19;;;22.95
63588;BMP280;49966;46.896;18.004;2023-09-19T11:58:53;100309.16;;;23.03
63588;BMP280;49966;46.896;18.004;2023-09-19T12:01:24;100312.53;;;23.19
63588;BMP280;49966;46.896;18.004;2023-09-19T12:03:58;100319.66;;;23.26
63588;BMP280;49966;46.896;18.004;2023-09-19T12:06:28;100309.72;;;23.10
63588;BMP280;49966;46.896;18.004;2023-09-19T12:08:59;100313.09;;;23.02
63588;BMP280;49966;46.896;18.004;2023-09-19T12:11:31;100325.53;;;23.12
63588;BMP280;49966;46.896;18.004;2023-09-19T12:14:03;100312.75;;;23.25
63588;BMP280;49966;46.896;18.004;2023-09-19T12:16:32;100322.19;;;23.20
63588;BMP280;49966;46.896;18.004;2023-09-19T12:19:19;100319.97;;;23.41
63588;BMP280;49966;46.896;18.004;2023-09-19T12:21:57;100326.06;;;23.45
63588;BMP280;49966;46.896;18.004;2023-09-19T12:24:27;100322.84;;;23.59
63588;BMP280;49966;46.896;18.004;2023-09-19T12:27:03;100334.75;;;23.74
63588;BMP280;49966;46.896;18.004;2023-09-19T12:29:44;100333.88;;;23.77
63588;BMP280;49966;46.896;18.004;2023-09-19T12:32:13;100321.16;;;23.65
63588;BMP280;49966;46.896;18.004;2023-09-19T12:34:51;100318.47;;;23.52
63588;BMP280;49966;46.896;18.004;2023-09-19T12:37:20;100315.84;;;23.62
63588;BMP280;49966;46.896;18.004;2023-09-19T12:39:51;100335.25;;;23.47
63588;BMP280;49966;46.896;18.004;2023-09-19T12:42:26;100320.72;;;23.41
63588;BMP280;49966;46.896;18.004;2023-09-19T12:44:57;100336.75;;;23.48
63588;BMP280;49966;46.896;18.004;2023-09-19T12:47:28;100344.34;;;23.41
63588;BMP280;49966;46.896;18.004;2023-09-19T12:50:08;100325.84;;;23.39
63588;BMP280;49966;46.896;18.004;2023-09-19T12:52:45;100321.16;;;23.40
63588;BMP280;49966;46.896;18.004;2023-09-19T12:55:20;100321.34;;;23.58
63588;BMP280;49966;46.896;18.004;2023-09-19T12:57:58;100319.63;;;23.51
63588;BMP280;49966;46.896;18.004;2023-09-19T13:00:35;100321.56;;;23.51
63588;BMP280;49966;46.896;18.004;2023-09-19T13:03:15;100310.66;;;23.54
63588;BMP280;49966;46.896;18.004;2023-09-19T13:05:54;100307.72;;;23.49
63588;BMP280;49966;46.896;18.004;2023-09-19T13:08:25;100303.94;;;23.46
63588;BMP280;49966;46.896;18.004;2023-09-19T13:11:04;100319.22;;;23.53
63588;BMP280;49966;46.896;18.004;2023-09-19T13:13:36;100316.84;;;23.42
63588;BMP280;49966;46.896;18.004;2023-09-19T13:16:06;100312.50;;;23.45
63588;BMP280;49966;46.896;18.004;2023-09-19T13:18:43;100330.03;;;23.40
63588;BMP280;49966;46.896;18.004;2023-09-19T13:21:13;100327.22;;;23.44
63588;BMP280;49966;46.896;18.004;2023-09-19T13:23:51;100315.44;;;23.38
63588;BMP280;49966;46.896;18.004;2023-09-19T13:26:21;100325.84;;;23.39
63588;BMP280;49966;46.896;18.004;2023-09-19T13:28:52;100316.06;;;23.42
63588;BMP280;49966;46.896;18.004;2023-09-19T13:31:21;100327.34;;;23.40
63588;BMP280;49966;46.896;18.004;2023-09-19T13:33:51;100317.72;;;23.26
63588;BMP280;49966;46.896;18.004;2023-09-19T13:36:20;100306.88;;;23.26
63588;BMP280;49966;46.896;18.004;2023-09-19T13:38:48;100306.03;;;23.30
63588;BMP280;49966;46.896;18.004;2023-09-19T13:41:17;100325.84;;;23.39
63588;BMP280;49966;46.896;18.004;2023-09-19T13:43:46;100319.84;;;23.44
63588;BMP280;49966;46.896;18.004;2023-09-19T13:46:17;100323.13;;;23.52
63588;BMP280;49966;46.896;18.004;2023-09-19T13:48:52;100319.31;;;23.49
63588;BMP280;49966;46.896;18.004;2023-09-19T13:51:22;100337.19;;;23.60
63588;BMP280;49966;46.896;18.004;2023-09-19T13:53:51;100337.50;;;23.62
63588;BMP280;49966;46.896;18.004;2023-09-19T13:56:19;100330.88;;;23.63
63588;BMP280;49966;46.896;18.004;2023-09-19T13:58:48;100326.88;;;23.67
63588;BMP280;49966;46.896;18.004;2023-09-19T14:01:19;100323.50;;;23.63
63588;BMP280;49966;46.896;18.004;2023-09-19T14:03:47;100304.38;;;23.58
63588;BMP280;49966;46.896;18.004;2023-09-19T14:06:18;100321.69;;;23.60
63588;BMP280;49966;46.896;18.004;2023-09-19T14:08:47;100311.28;;;23.59
63588;BMP280;49966;46.896;18.004;2023-09-19T14:11:17;100313.66;;;23.56
63588;BMP280;49966;46.896;18.004;2023-09-19T14:13:45;100304.25;;;23.61
63588;BMP280;49966;46.896;18.004;2023-09-19T14:16:16;100312.28;;;23.52
63588;BMP280;49966;46.896;18.004;2023-09-19T14:18:47;100326.44;;;23.69
63588;BMP280;49966;46.896;18.004;2023-09-19T14:21:15;100303.38;;;23.64
63588;BMP280;49966;46.896;18.004;2023-09-19T14:23:44;100326.97;;;23.64
63588;BMP280;49966;46.896;18.004;2023-09-19T14:26:13;100319.94;;;23.66